Time;durP1;ratioP1;P1;durP2;ratioP2;P2;SDS_P1;SDS_P2;PMS_P1;PMS_P2;Temp;Humidity;BMP_temperature;BMP_pressure;BME280_temperature;BME280_humidity;BME280_pressure;Samples;Min_cycle;Max_cycle;Signal;HPM_P1;HPM_P2
2022/10/27 00:02:13;;;;;;;10.37;5.20;;;20.80;99.90;;;;;;5073155;28;20463;-60
2022/10/27 00:04:41;;;;;;;5.57;4.63;;;20.80;99.90;;;;;;5073523;28;20444;-60
2022/10/27 00:07:08;;;;;;;7.77;4.70;;;20.80;99.90;;;;;;5073415;28;20444;-60
2022/10/27 00:09:36;;;;;;;9.47;5.33;;;20.80;99.90;;;;;;5073062;28;20425;-60
2022/10/27 00:12:03;;;;;;;4.97;4.13;;;20.70;99.90;;;;;;5072998;28;20571;-60
2022/10/27 00:14:30;;;;;;;7.23;5.10;;;20.50;99.90;;;;;;5058615;28;20484;-60
2022/10/27 00:16:57;;;;;;;9.70;5.00;;;20.30;99.90;;;;;;5052984;28;20449;-60
2022/10/27 00:19:25;;;;;;;7.67;4.23;;;20.50;99.90;;;;;;5053334;28;20445;-60
2022/10/27 00:21:53;;;;;;;7.77;4.73;;;20.50;99.90;;;;;;5052852;28;20448;-60
2022/10/27 00:24:21;;;;;;;11.70;4.60;;;20.40;99.90;;;;;;5053131;28;20446;-60
2022/10/27 00:26:48;;;;;;;6.83;4.70;;;20.50;99.90;;;;;;5053284;28;20533;-60
2022/10/27 00:29:15;;;;;;;10.93;5.23;;;20.40;99.90;;;;;;5052899;28;20613;-60
2022/10/27 00:31:42;;;;;;;9.97;4.97;;;20.50;99.90;;;;;;5052865;28;20480;-60
2022/10/27 00:34:09;;;;;;;7.60;4.40;;;20.60;99.90;;;;;;5053225;28;20445;-60
2022/10/27 00:36:37;;;;;;;4.97;4.20;;;20.60;99.90;;;;;;5052791;28;20449;-60
2022/10/27 00:39:05;;;;;;;9.70;5.17;;;20.50;99.90;;;;;;5052992;28;20445;-60
2022/10/27 00:41:35;;;;;;;8.10;5.30;;;20.60;99.90;;;;;;5052746;28;20971;-60
2022/10/27 00:44:18;;;;;;;11.20;4.70;;;20.40;99.90;;;;;;5053208;28;20480;-60
2022/10/27 00:46:47;;;;;;;9.00;5.60;;;20.30;99.90;;;;;;5051865;28;20995;-60
2022/10/27 00:49:18;;;;;;;8.17;6.00;;;20.20;99.90;;;;;;5052642;28;20954;-60
2022/10/27 00:51:50;;;;;;;4.80;4.30;;;19.60;99.90;;;;;;5052799;28;20434;-60
2022/10/27 00:54:21;;;;;;;8.73;4.73;;;19.50;99.90;;;;;;5053123;28;20437;-60
2022/10/27 00:56:51;;;;;;;8.60;4.13;;;19.90;99.90;;;;;;5052732;28;20448;-60
2022/10/27 00:59:19;;;;;;;5.23;4.30;;;20.20;99.90;;;;;;5052912;28;20652;-60
2022/10/27 01:01:47;;;;;;;8.77;4.70;;;20.20;99.90;;;;;;5053206;28;20826;-61
2022/10/27 01:04:18;;;;;;;6.03;4.70;;;20.10;99.90;;;;;;5056417;28;20434;-60
2022/10/27 01:06:45;;;;;;;4.77;4.30;;;19.90;99.90;;;;;;5056345;28;20433;-60
2022/10/27 01:09:13;;;;;;;6.97;4.80;;;19.60;99.90;;;;;;5056406;28;20790;-60
2022/10/27 01:11:41;;;;;;;7.63;4.43;;;19.40;99.90;;;;;;5056192;28;20453;-60
2022/10/27 01:14:09;;;;;;;17.20;4.47;;;19.60;99.90;;;;;;5067359;28;20465;-60
2022/10/27 01:16:43;;;;;;;6.23;4.80;;;20.00;99.90;;;;;;5076198;28;20551;-60
2022/10/27 01:19:35;;;;;;;10.27;4.47;;;19.40;99.90;;;;;;5076411;28;20435;-60
2022/10/27 01:22:08;;;;;;;7.20;3.70;;;19.60;99.90;;;;;;5076316;28;20828;-60
2022/10/27 01:25:11;;;;;;;7.20;4.93;;;19.70;99.90;;;;;;5076100;28;20907;-60
2022/10/27 01:28:04;;;;;;;4.87;3.97;;;19.60;99.90;;;;;;5076262;28;20424;-60
2022/10/27 01:30:40;;;;;;;9.80;4.43;;;20.00;99.90;;;;;;5075793;28;20515;-60
2022/10/27 01:33:14;;;;;;;9.53;4.57;;;20.00;99.90;;;;;;5076016;28;20488;-60
2022/10/27 01:35:51;;;;;;;6.47;4.37;;;20.10;99.90;;;;;;5075723;28;20428;-60
2022/10/27 01:38:23;;;;;;;7.83;4.10;;;20.30;99.90;;;;;;5075879;28;20551;-60
2022/10/27 01:40:59;;;;;;;7.53;4.13;;;20.30;99.90;;;;;;5076079;28;20436;-60
2022/10/27 01:43:29;;;;;;;7.93;4.57;;;20.40;99.90;;;;;;5075706;28;20468;-60
2022/10/27 01:45:56;;;;;;;4.63;3.93;;;20.30;99.90;;;;;;5075819;28;20449;-60
2022/10/27 01:48:25;;;;;;;6.30;3.97;;;20.10;99.90;;;;;;5075583;28;20449;-60
2022/10/27 01:50:52;;;;;;;5.10;4.63;;;19.80;99.90;;;;;;5075697;28;20437;-60
2022/10/27 01:53:19;;;;;;;5.53;3.80;;;20.00;99.90;;;;;;5075651;28;20484;-60
2022/10/27 01:55:57;;;;;;;6.33;4.70;;;20.20;99.90;;;;;;5075504;28;20958;-61
2022/10/27 01:58:48;;;;;;;5.47;3.80;;;20.30;99.90;;;;;;5075313;28;20435;-60
2022/10/27 02:01:40;;;;;;;8.70;3.87;;;20.40;99.90;;;;;;5075740;28;20435;-60
2022/10/27 02:04:18;;;;;;;7.07;4.30;;;20.30;99.90;;;;;;5075576;28;20435;-60
2022/10/27 02:06:50;;;;;;;5.80;3.83;;;20.10;99.90;;;;;;5075297;28;20442;-60
2022/10/27 02:09:22;;;;;;;9.97;4.60;;;20.20;99.90;;;;;;5075665;28;20425;-60
2022/10/27 02:11:53;;;;;;;8.37;4.47;;;20.20;99.90;;;;;;5074847;28;20903;-60
2022/10/27 02:14:21;;;;;;;6.20;4.20;;;19.70;99.90;;;;;;5074044;28;20997;-60
2022/10/27 02:16:52;;;;;;;11.87;4.70;;;19.90;99.90;;;;;;5074983;28;20510;-60
2022/10/27 02:19:25;;;;;;;8.50;4.90;;;19.60;99.90;;;;;;5075046;28;20433;-60
2022/10/27 02:21:56;;;;;;;5.93;4.27;;;19.90;99.90;;;;;;5074957;28;20636;-60
2022/10/27 02:24:24;;;;;;;6.13;4.13;;;20.00;99.90;;;;;;5075201;28;20769;-60
2022/10/27 02:26:54;;;;;;;5.70;3.70;;;19.90;99.90;;;;;;5075184;28;20451;-60
2022/10/27 02:29:25;;;;;;;6.70;3.70;;;20.00;99.90;;;;;;5075430;28;20444;-60
2022/10/27 02:31:56;;;;;;;6.80;3.90;;;20.00;99.90;;;;;;5074682;28;20441;-60
2022/10/27 02:34:26;;;;;;;6.27;4.00;;;19.80;99.90;;;;;;5074682;28;20472;-60
2022/10/27 02:36:54;;;;;;;6.77;3.80;;;19.90;99.90;;;;;;5074948;28;20539;-60
2022/10/27 02:39:21;;;;;;;6.20;4.37;;;19.90;99.90;;;;;;5074797;28;20448;-60
2022/10/27 02:41:48;;;;;;;12.03;4.77;;;20.10;99.90;;;;;;5074807;28;20454;-60
2022/10/27 02:44:15;;;;;;;6.37;4.30;;;20.10;99.90;;;;;;5075010;28;20793;-60
2022/10/27 02:46:42;;;;;;;8.07;4.50;;;19.80;99.90;;;;;;5074121;28;20491;-60
2022/10/27 02:49:10;;;;;;;11.37;4.63;;;19.90;99.90;;;;;;5074372;28;20819;-60
2022/10/27 02:51:38;;;;;;;6.73;4.20;;;20.00;99.90;;;;;;5074669;28;20471;-61
2022/10/27 02:54:05;;;;;;;5.03;4.53;;;20.00;99.90;;;;;;5074494;28;20487;-61
2022/10/27 02:56:32;;;;;;;6.43;4.10;;;20.00;99.90;;;;;;5074627;28;20448;-60
2022/10/27 02:58:59;;;;;;;7.17;3.90;;;20.10;99.90;;;;;;5074474;28;20951;-60
2022/10/27 03:01:26;;;;;;;12.13;4.67;;;20.20;99.90;;;;;;5074227;28;20444;-61
2022/10/27 03:03:54;;;;;;;7.93;5.17;;;20.20;99.90;;;;;;5074181;28;20464;-61
2022/10/27 03:06:21;;;;;;;8.63;3.90;;;19.80;99.90;;;;;;5074052;28;20883;-61
2022/10/27 03:08:49;;;;;;;7.23;4.70;;;19.70;99.90;;;;;;5074018;28;20444;-61
2022/10/27 03:11:16;;;;;;;9.20;5.00;;;19.50;99.90;;;;;;5074253;28;20543;-60
2022/10/27 03:13:44;;;;;;;11.77;4.70;;;18.80;99.90;;;;;;5073391;28;20495;-60
2022/10/27 03:16:11;;;;;;;6.30;4.23;;;18.40;99.90;;;;;;5074173;28;20504;-61
2022/10/27 03:18:38;;;;;;;8.73;4.63;;;18.70;99.90;;;;;;5074079;28;20455;-60
2022/10/27 03:21:06;;;;;;;8.70;4.43;;;19.40;99.90;;;;;;5073760;28;21018;-60
2022/10/27 03:23:33;;;;;;;7.23;5.07;;;19.30;99.90;;;;;;5073601;28;20645;-60
2022/10/27 03:26:01;;;;;;;12.17;5.57;;;19.50;99.90;;;;;;5073921;28;20456;-60
2022/10/27 03:28:29;;;;;;;6.00;4.37;;;19.30;99.90;;;;;;5073663;28;20997;-60
2022/10/27 03:30:56;;;;;;;5.67;4.07;;;19.30;99.90;;;;;;5073595;28;20454;-60
2022/10/27 03:33:23;;;;;;;7.17;4.17;;;19.50;99.90;;;;;;5073722;28;20483;-60
2022/10/27 03:35:50;;;;;;;5.00;3.93;;;19.70;99.90;;;;;;5073516;28;20444;-60
2022/10/27 03:38:17;;;;;;;9.90;4.43;;;19.70;99.90;;;;;;5073882;28;20444;-61
2022/10/27 03:40:44;;;;;;;5.37;4.03;;;19.70;99.90;;;;;;5073461;28;20444;-61
2022/10/27 03:43:13;;;;;;;11.50;4.60;;;19.90;99.90;;;;;;5073420;28;21078;-60
2022/10/27 03:45:40;;;;;;;6.43;4.17;;;19.90;99.90;;;;;;5073358;28;20448;-60
2022/10/27 03:48:10;;;;;;;7.83;3.90;;;20.00;99.90;;;;;;5073586;28;20786;-60
2022/10/27 03:50:38;;;;;;;11.20;4.40;;;19.90;99.90;;;;;;5073233;28;20945;-60
2022/10/27 03:53:05;;;;;;;13.27;4.20;;;19.90;99.90;;;;;;5073499;28;20488;-61
2022/10/27 03:55:33;;;;;;;7.43;3.80;;;19.40;99.90;;;;;;5073231;28;20809;-60
2022/10/27 03:58:00;;;;;;;5.77;4.00;;;19.40;99.90;;;;;;5073229;28;20444;-60
2022/10/27 04:00:30;;;;;;;5.43;4.30;;;19.40;99.90;;;;;;5073136;28;20931;-60
2022/10/27 04:02:57;;;;;;;11.50;5.27;;;19.70;99.90;;;;;;5073287;28;20469;-60
2022/10/27 04:05:25;;;;;;;6.50;3.50;;;19.80;99.90;;;;;;5073166;28;20870;-60
2022/10/27 04:07:52;;;;;;;9.13;5.83;;;19.90;99.90;;;;;;5073161;28;20448;-61
2022/10/27 04:10:19;;;;;;;5.23;3.93;;;19.90;99.90;;;;;;5073228;28;20448;-60
2022/10/27 04:12:50;;;;;;;9.23;4.63;;;19.30;99.90;;;;;;5072950;28;20468;-60
2022/10/27 04:15:17;;;;;;;7.70;4.00;;;19.20;99.90;;;;;;5052929;28;20439;-60
2022/10/27 04:17:46;;;;;;;6.90;3.90;;;19.10;99.90;;;;;;5053167;28;20449;-60
2022/10/27 04:20:14;;;;;;;8.40;5.33;;;19.30;99.90;;;;;;5053165;28;20492;-60
2022/10/27 04:22:41;;;;;;;7.20;4.43;;;19.30;99.90;;;;;;5045145;28;20462;-60
2022/10/27 04:25:09;;;;;;;5.10;4.07;;;19.10;99.90;;;;;;5053345;28;20441;-60
2022/10/27 04:27:36;;;;;;;5.37;4.20;;;19.20;99.90;;;;;;5053188;28;20441;-60
2022/10/27 04:30:03;;;;;;;9.00;4.50;;;19.40;99.90;;;;;;5052814;28;20964;-60
2022/10/27 04:32:31;;;;;;;5.20;4.50;;;19.70;99.90;;;;;;5052811;28;20468;-60
2022/10/27 04:34:59;;;;;;;10.73;5.00;;;19.70;99.90;;;;;;5052771;28;20840;-60
2022/10/27 04:37:26;;;;;;;4.93;4.00;;;19.60;99.90;;;;;;5054778;28;20543;-60
2022/10/27 04:39:53;;;;;;;8.83;4.40;;;19.60;99.90;;;;;;5057149;28;20441;-60
2022/10/27 04:42:20;;;;;;;5.90;4.63;;;19.50;99.90;;;;;;5056886;28;20888;-60
2022/10/27 04:44:48;;;;;;;7.23;4.77;;;19.40;99.90;;;;;;5056625;28;20440;-60
2022/10/27 04:47:15;;;;;;;6.90;4.10;;;19.50;99.90;;;;;;5056748;28;20540;-61
2022/10/27 04:49:42;;;;;;;6.23;4.33;;;19.80;99.90;;;;;;5056690;28;20786;-61
2022/10/27 04:52:10;;;;;;;6.50;4.47;;;19.70;99.90;;;;;;5056473;28;20830;-61
2022/10/27 04:54:38;;;;;;;8.53;4.70;;;19.80;99.90;;;;;;5056682;28;20499;-60
2022/10/27 04:57:05;;;;;;;7.20;5.17;;;19.70;99.90;;;;;;5056883;28;20456;-60
2022/10/27 04:59:32;;;;;;;4.70;4.20;;;19.80;99.90;;;;;;5056657;28;20496;-60
2022/10/27 05:01:59;;;;;;;8.60;5.30;;;19.80;99.90;;;;;;5056318;28;20450;-60
2022/10/27 05:04:26;;;;;;;9.23;5.10;;;19.80;99.90;;;;;;5056742;28;20447;-60
2022/10/27 05:06:53;;;;;;;8.20;4.90;;;19.80;99.90;;;;;;5056302;28;20536;-61
2022/10/27 05:09:22;;;;;;;8.43;5.10;;;19.50;99.90;;;;;;5056564;28;20449;-60
2022/10/27 05:11:49;;;;;;;5.20;4.70;;;19.70;99.90;;;;;;5056310;28;20800;-60
2022/10/27 05:14:16;;;;;;;8.20;4.50;;;19.90;99.90;;;;;;5067982;28;20498;-60
2022/10/27 05:16:43;;;;;;;7.90;5.17;;;20.00;99.90;;;;;;5076024;28;20954;-60
2022/10/27 05:19:10;;;;;;;6.67;4.23;;;19.90;99.90;;;;;;5076406;28;20449;-60
2022/10/27 05:21:37;;;;;;;6.10;4.57;;;19.80;99.90;;;;;;5076106;28;20441;-60
2022/10/27 05:24:05;;;;;;;4.90;4.40;;;19.70;99.90;;;;;;5075705;28;20982;-60
2022/10/27 05:26:37;;;;;;;7.03;4.13;;;19.70;99.90;;;;;;5076068;28;20447;-60
2022/10/27 05:29:04;;;;;;;5.63;4.67;;;18.70;99.90;;;;;;5075996;28;20685;-60
2022/10/27 05:31:31;;;;;;;8.00;5.10;;;18.90;99.90;;;;;;5075646;28;20935;-61
2022/10/27 05:33:58;;;;;;;5.70;4.80;;;19.00;99.90;;;;;;5075790;28;20571;-61
2022/10/27 05:36:26;;;;;;;5.63;4.40;;;;;;;;;;5075854;28;20483;-60
2022/10/27 05:38:53;;;;;;;8.10;4.20;;;19.10;99.90;;;;;;5075760;28;20456;-60
2022/10/27 05:41:20;;;;;;;6.50;5.60;;;19.30;99.90;;;;;;5075429;28;20461;-60
2022/10/27 05:43:48;;;;;;;7.67;5.53;;;19.50;99.90;;;;;;5075378;28;20469;-60
2022/10/27 05:46:15;;;;;;;9.07;7.07;;;19.60;99.90;;;;;;5075193;28;20432;-60
2022/10/27 05:48:43;;;;;;;12.90;7.80;;;19.60;99.90;;;;;;5074297;28;20445;-61
2022/10/27 05:51:10;;;;;;;11.10;6.50;;;19.70;99.90;;;;;;5075490;28;20455;-61
2022/10/27 05:53:37;;;;;;;7.73;6.17;;;19.70;99.90;;;;;;5074994;28;20991;-60
2022/10/27 05:56:04;;;;;;;9.07;5.73;;;19.70;99.90;;;;;;5075468;28;20448;-60
2022/10/27 05:58:31;;;;;;;8.77;6.47;;;19.70;99.90;;;;;;5075751;28;20476;-60
2022/10/27 06:01:00;;;;;;;7.73;5.07;;;19.50;99.90;;;;;;5075267;28;20425;-60
2022/10/27 06:03:27;;;;;;;10.67;7.10;;;19.30;99.90;;;;;;5075369;28;20464;-61
2022/10/27 06:05:54;;;;;;;10.60;5.23;;;19.50;99.90;;;;;;5075363;28;20444;-61
2022/10/27 06:08:22;;;;;;;9.73;5.70;;;19.30;99.90;;;;;;5075451;28;20527;-61
2022/10/27 06:10:50;;;;;;;11.53;6.43;;;19.20;99.90;;;;;;5075084;28;20834;-61
2022/10/27 06:13:17;;;;;;;7.43;4.70;;;19.30;99.90;;;;;;5074536;28;20484;-60
2022/10/27 06:15:44;;;;;;;8.90;5.40;;;19.60;99.90;;;;;;5074545;28;20839;-60
2022/10/27 06:18:13;;;;;;;13.37;5.53;;;19.60;99.90;;;;;;5074656;28;20446;-60
2022/10/27 06:20:40;;;;;;;7.63;5.10;;;19.50;99.90;;;;;;5075412;28;20451;-60
2022/10/27 06:23:07;;;;;;;8.83;5.30;;;19.30;99.90;;;;;;5074682;28;20506;-60
2022/10/27 06:25:35;;;;;;;16.37;6.20;;;19.40;99.90;;;;;;5074781;28;20547;-60
2022/10/27 06:28:02;;;;;;;8.10;5.47;;;19.30;99.90;;;;;;5074960;28;20846;-60
2022/10/27 06:30:30;;;;;;;7.87;5.50;;;19.40;99.90;;;;;;5074936;28;20453;-60
2022/10/27 06:32:57;;;;;;;9.53;5.30;;;19.60;99.90;;;;;;5074744;28;20468;-60
2022/10/27 06:35:25;;;;;;;8.90;5.53;;;19.40;99.90;;;;;;5074593;28;20560;-60
2022/10/27 06:37:52;;;;;;;12.20;5.00;;;19.50;99.90;;;;;;5074375;28;20454;-61
2022/10/27 06:40:20;;;;;;;10.17;4.80;;;19.10;99.90;;;;;;5074215;28;20448;-61
2022/10/27 06:42:49;;;;;;;10.23;4.63;;;19.50;99.90;;;;;;5074085;28;20567;-61
2022/10/27 06:45:17;;;;;;;5.03;4.33;;;19.70;99.90;;;;;;5073877;28;20437;-61
2022/10/27 06:47:45;;;;;;;8.23;4.80;;;19.90;99.90;;;;;;5074281;28;20445;-61
2022/10/27 06:50:12;;;;;;;9.80;5.83;;;19.50;99.90;;;;;;5073890;28;20923;-61
2022/10/27 06:52:41;;;;;;;5.87;5.03;;;19.50;99.90;;;;;;5074087;28;20468;-60
2022/10/27 06:55:09;;;;;;;7.67;5.73;;;19.70;99.90;;;;;;5073471;28;20483;-61
2022/10/27 06:57:40;;;;;;;8.13;5.73;;;19.70;99.90;;;;;;5073390;28;20448;-61
2022/10/27 07:00:09;;;;;;;9.40;4.67;;;20.00;99.90;;;;;;5073633;28;20539;-64
2022/10/27 07:02:36;;;;;;;8.13;6.00;;;19.80;99.90;;;;;;5073411;28;21001;-61
2022/10/27 07:05:03;;;;;;;8.37;5.30;;;19.30;99.90;;;;;;5073423;28;20470;-59
2022/10/27 07:07:31;;;;;;;6.47;5.77;;;19.00;99.90;;;;;;5073750;28;20480;-61
2022/10/27 07:09:59;;;;;;;5.93;5.33;;;19.20;99.90;;;;;;5073568;28;20880;-61
2022/10/27 07:12:26;;;;;;;6.50;5.83;;;19.20;99.90;;;;;;5073283;28;20500;-61
2022/10/27 07:14:53;;;;;;;8.77;4.40;;;19.40;99.90;;;;;;5073110;28;20584;-61
2022/10/27 07:17:20;;;;;;;9.93;4.97;;;19.70;99.90;;;;;;5073303;28;20927;-61
2022/10/27 07:19:47;;;;;;;9.47;5.40;;;19.90;99.90;;;;;;5073769;28;20542;-61
2022/10/27 07:22:15;;;;;;;7.53;5.10;;;19.50;99.90;;;;;;5073094;28;20499;-61
2022/10/27 07:24:42;;;;;;;5.50;4.97;;;18.90;99.90;;;;;;5073339;28;20448;-60
2022/10/27 07:27:10;;;;;;;12.83;5.77;;;19.10;99.90;;;;;;5072896;28;20543;-60
2022/10/27 07:29:37;;;;;;;9.00;5.57;;;19.00;99.90;;;;;;5073211;28;20444;-61
2022/10/27 07:32:05;;;;;;;9.70;4.97;;;19.20;99.90;;;;;;5073268;28;20468;-61
2022/10/27 07:34:32;;;;;;;11.17;5.63;;;19.40;99.90;;;;;;5072621;28;20479;-60
2022/10/27 07:37:00;;;;;;;6.67;5.90;;;19.70;99.90;;;;;;5073103;28;20467;-61
2022/10/27 07:39:27;;;;;;;9.10;6.33;;;19.40;99.90;;;;;;5073043;28;20803;-61
2022/10/27 07:41:54;;;;;;;14.30;5.90;;;19.40;99.90;;;;;;5072384;28;20528;-60
2022/10/27 07:44:22;;;;;;;13.40;6.60;;;19.80;99.90;;;;;;5073139;28;20474;-61
2022/10/27 07:46:49;;;;;;;9.50;6.63;;;19.70;99.90;;;;;;5072918;28;20531;-61
2022/10/27 07:49:16;;;;;;;11.40;5.63;;;19.80;99.90;;;;;;5073117;28;20447;-60
2022/10/27 07:51:44;;;;;;;8.67;6.13;;;20.10;99.90;;;;;;5072896;28;20436;-59
2022/10/27 07:54:11;;;;;;;11.50;6.07;;;20.10;99.90;;;;;;5072516;28;20468;-59
2022/10/27 07:56:38;;;;;;;14.37;6.93;;;20.00;99.90;;;;;;5072948;28;20448;-60
2022/10/27 07:59:05;;;;;;;9.43;6.80;;;19.90;99.90;;;;;;5072454;28;20495;-59
2022/10/27 08:01:34;;;;;;;9.30;6.10;;;20.00;99.90;;;;;;5072862;28;20867;-59
2022/10/27 08:04:01;;;;;;;7.87;5.20;;;19.80;99.90;;;;;;5072564;28;20464;-59
2022/10/27 08:06:28;;;;;;;15.77;6.33;;;19.90;99.90;;;;;;5072462;28;20479;-59
2022/10/27 08:08:55;;;;;;;10.30;6.03;;;19.90;99.90;;;;;;5072624;28;20539;-59
2022/10/27 08:11:22;;;;;;;9.17;5.23;;;19.80;99.90;;;;;;5071804;28;20449;-57
2022/10/27 08:13:51;;;;;;;6.23;4.63;;;19.10;99.90;;;;;;5072379;28;20492;-57
2022/10/27 08:16:18;;;;;;;8.97;5.63;;;19.50;99.90;;;;;;5072509;28;20522;-57
2022/10/27 08:18:46;;;;;;;10.23;5.77;;;19.40;99.90;;;;;;5072228;28;20437;-57
2022/10/27 08:21:13;;;;;;;11.20;5.50;;;19.40;99.90;;;;;;5072626;28;20456;-58
2022/10/27 08:23:41;;;;;;;10.23;6.87;;;19.70;99.90;;;;;;5063834;28;20560;-58
2022/10/27 08:26:08;;;;;;;8.33;5.40;;;19.70;99.90;;;;;;5072056;28;20437;-57
2022/10/27 08:28:35;;;;;;;6.20;5.40;;;20.10;99.90;;;;;;5072037;28;20834;-58
2022/10/27 08:31:02;;;;;;;9.50;5.00;;;20.40;99.90;;;;;;5072323;28;20518;-58
2022/10/27 08:33:29;;;;;;;7.27;6.10;;;20.50;99.90;;;;;;5072191;28;20468;-58
2022/10/27 08:36:00;;;;;;;6.73;5.33;;;19.90;99.90;;;;;;5072319;28;20487;-58
2022/10/27 08:38:31;;;;;;;5.10;4.60;;;20.00;99.90;;;;;;5072448;28;20503;-58
2022/10/27 08:41:06;;;;;;;10.37;6.03;;;20.30;99.90;;;;;;5072279;28;20437;-58
2022/10/27 08:44:03;;;;;;;6.17;4.47;;;20.50;99.90;;;;;;5072627;28;20582;-58
2022/10/27 08:46:38;;;;;;;8.37;5.50;;;20.70;99.90;;;;;;5071848;28;20903;-58
2022/10/27 08:49:13;;;;;;;7.43;5.10;;;20.60;99.90;;;;;;5072237;28;20513;-58
2022/10/27 08:51:43;;;;;;;8.20;6.23;;;20.60;99.90;;;;;;5071864;28;20738;-58
2022/10/27 08:54:11;;;;;;;8.77;5.40;;;20.40;99.90;;;;;;5071241;28;20463;-58
2022/10/27 08:56:41;;;;;;;8.03;4.17;;;20.40;99.90;;;;;;5060061;28;20464;-59
2022/10/27 08:59:14;;;;;;;5.80;5.20;;;20.30;99.90;;;;;;5062969;28;20460;-59
2022/10/27 09:01:49;;;;;;;9.90;5.17;;;20.70;99.90;;;;;;5071534;28;20868;-59
2022/10/27 09:04:50;;;;;;;7.20;4.60;;;20.90;99.90;;;;;;5071819;28;20428;-59
2022/10/27 09:07:28;;;;;;;10.73;5.13;;;20.90;99.90;;;;;;5071857;28;20439;-59
2022/10/27 09:09:58;;;;;;;6.50;4.87;;;21.10;99.90;;;;;;5072085;28;20431;-59
2022/10/27 09:12:50;;;;;;;6.03;4.63;;;20.90;99.90;;;;;;5071811;28;20472;-59
2022/10/27 09:15:38;;;;;;;7.43;5.77;;;20.20;99.90;;;;;;5051386;28;20483;-59
2022/10/27 09:18:10;;;;;;;6.77;4.20;;;19.90;99.90;;;;;;5051091;28;20406;-59
2022/10/27 09:20:41;;;;;;;6.23;5.00;;;20.20;99.90;;;;;;5051943;28;20449;-59
2022/10/27 09:23:16;;;;;;;9.80;4.77;;;20.20;99.90;;;;;;5052973;28;20980;-59
2022/10/27 09:25:44;;;;;;;5.90;4.53;;;20.50;99.90;;;;;;5055900;28;20537;-59
2022/10/27 09:28:17;;;;;;;4.40;3.93;;;20.70;99.90;;;;;;5055741;28;20473;-59
2022/10/27 09:30:47;;;;;;;4.73;3.50;;;20.90;99.90;;;;;;5055484;28;20447;-59
2022/10/27 09:33:20;;;;;;;6.30;4.23;;;21.10;99.90;;;;;;5055320;28;20873;-59
2022/10/27 09:35:48;;;;;;;8.20;5.00;;;21.20;99.90;;;;;;5055295;28;20461;-59
2022/10/27 09:38:22;;;;;;;4.93;3.83;;;21.30;99.90;;;;;;5055453;28;20532;-59
2022/10/27 09:40:51;;;;;;;10.00;4.63;;;21.20;99.90;;;;;;5055401;28;20460;-59
2022/10/27 09:43:20;;;;;;;8.70;4.60;;;21.20;99.90;;;;;;5055359;28;20516;-59
2022/10/27 09:45:55;;;;;;;6.00;4.13;;;21.40;99.90;;;;;;5055131;28;20433;-59
2022/10/27 09:48:25;;;;;;;9.70;4.10;;;21.30;99.90;;;;;;5055359;28;20456;-59
2022/10/27 09:50:55;;;;;;;5.13;3.43;;;21.50;99.90;;;;;;5055145;28;20491;-59
2022/10/27 09:53:42;;;;;;;9.90;4.43;;;21.70;99.90;;;;;;5055077;28;20468;-59
2022/10/27 09:56:14;;;;;;;5.17;4.67;;;21.70;99.90;;;;;;5055014;28;20823;-59
2022/10/27 09:58:46;;;;;;;9.10;5.17;;;21.80;99.90;;;;;;5055538;28;20426;-59
2022/10/27 10:01:13;;;;;;;7.90;4.60;;;21.70;99.90;;;;;;5054954;28;20436;-59
2022/10/27 10:03:41;;;;;;;6.37;3.87;;;21.50;99.90;;;;;;5055119;28;20469;-60
2022/10/27 10:06:25;;;;;;;7.37;4.77;;;21.80;99.90;;;;;;5055369;28;20445;-59
2022/10/27 10:08:53;;;;;;;10.10;5.40;;;21.80;99.90;;;;;;5055402;28;20429;-58
2022/10/27 10:11:22;;;;;;;9.90;4.83;;;21.50;99.90;;;;;;5054976;28;20453;-59
2022/10/27 10:13:58;;;;;;;8.80;4.37;;;21.30;99.90;;;;;;5062721;28;20495;-59
2022/10/27 10:16:27;;;;;;;5.80;4.40;;;21.10;99.90;;;;;;5074205;28;20480;-59
2022/10/27 10:19:05;;;;;;;10.03;4.60;;;21.50;99.90;;;;;;5074360;28;20456;-59
2022/10/27 10:21:49;;;;;;;6.53;5.00;;;21.60;99.90;;;;;;5074403;28;20511;-60
2022/10/27 10:24:19;;;;;;;6.10;5.10;;;;;;;;;;5072568;28;20457;-60
2022/10/27 10:26:48;;;;;;;7.93;4.03;;;22.40;99.90;;;;;;5074707;28;20448;-59
2022/10/27 10:29:27;;;;;;;9.17;4.20;;;24.20;99.90;;;;;;5074481;28;20807;-59
2022/10/27 10:32:13;;;;;;;5.23;3.90;;;26.00;99.90;;;;;;5074537;28;20428;-59
2022/10/27 10:34:43;;;;;;;6.03;4.00;;;26.20;99.90;;;;;;5073587;28;20528;-60
2022/10/27 10:37:32;;;;;;;6.70;3.80;;;27.90;99.90;;;;;;5074667;28;20539;-60
2022/10/27 10:40:26;;;;;;;7.93;4.03;;;28.10;99.90;;;;;;5074644;28;20474;-60
2022/10/27 10:43:15;;;;;;;8.30;4.00;;;28.10;99.00;;;;;;5074515;28;20553;-60
2022/10/27 10:45:42;;;;;;;9.93;4.70;;;28.30;99.00;;;;;;5063235;28;20456;-60
2022/10/27 10:48:26;;;;;;;9.00;4.27;;;28.90;97.60;;;;;;5074085;28;20445;-60
2022/10/27 10:50:54;;;;;;;8.27;4.73;;;28.70;98.00;;;;;;5074138;28;20896;-60
2022/10/27 10:53:25;;;;;;;6.30;3.40;;;28.90;97.20;;;;;;5073842;28;20979;-60
2022/10/27 10:55:55;;;;;;;10.47;3.87;;;29.10;97.90;;;;;;5074008;28;20551;-60
2022/10/27 10:58:25;;;;;;;7.50;4.30;;;29.30;97.80;;;;;;5073755;28;20527;-60
2022/10/27 11:00:57;;;;;;;6.87;4.30;;;28.40;96.80;;;;;;5074206;28;20450;-60
2022/10/27 11:03:27;;;;;;;7.50;4.33;;;28.30;97.00;;;;;;5073892;28;20860;-60
2022/10/27 11:05:57;;;;;;;9.30;4.60;;;27.90;97.70;;;;;;5073386;28;20437;-60
2022/10/27 11:08:29;;;;;;;7.23;4.77;;;28.10;98.00;;;;;;5073649;28;20737;-60
2022/10/27 11:10:58;;;;;;;7.13;4.33;;;28.10;97.40;;;;;;5073740;28;20428;-60
2022/10/27 11:13:37;;;;;;;6.33;5.00;;;28.10;97.60;;;;;;5072823;28;20816;-64
2022/10/27 11:16:07;;;;;;;7.63;4.67;;;28.50;97.80;;;;;;5073249;28;21041;-64
2022/10/27 11:18:45;;;;;;;17.40;4.33;;;28.20;97.60;;;;;;5073648;28;20474;-64
2022/10/27 11:21:20;;;;;;;10.80;4.90;;;28.30;97.80;;;;;;5073363;28;20433;-64
2022/10/27 11:23:49;;;;;;;8.10;4.40;;;27.90;97.60;;;;;;5073185;28;20934;-64
2022/10/27 11:26:21;;;;;;;7.07;4.70;;;27.50;97.90;;;;;;5073434;28;20445;-63
2022/10/27 11:28:59;;;;;;;6.73;3.53;;;27.60;98.30;;;;;;5073677;28;20441;-64
2022/10/27 11:31:37;;;;;;;8.77;4.27;;;27.50;97.50;;;;;;5073192;28;20428;-64
2022/10/27 11:34:15;;;;;;;14.73;4.70;;;27.60;97.60;;;;;;5073146;28;20553;-64
2022/10/27 11:36:46;;;;;;;6.43;3.90;;;27.70;98.30;;;;;;5073447;28;20475;-64
2022/10/27 11:39:21;;;;;;;9.67;4.30;;;27.60;98.10;;;;;;5073325;28;20536;-64
2022/10/27 11:41:54;;;;;;;7.70;3.70;;;27.80;97.40;;;;;;5073097;28;20436;-64
2022/10/27 11:44:30;;;;;;;11.50;3.80;;;27.40;97.40;;;;;;5073394;28;20456;-64
2022/10/27 11:47:03;;;;;;;7.33;4.77;;;27.10;97.40;;;;;;5072228;28;20517;-64
2022/10/27 11:49:38;;;;;;;9.97;4.73;;;27.10;98.40;;;;;;5073059;28;20433;-64
2022/10/27 11:52:13;;;;;;;6.80;4.30;;;27.40;97.40;;;;;;5072732;28;20558;-64
2022/10/27 11:54:41;;;;;;;8.83;3.77;;;27.40;97.40;;;;;;5073039;28;20447;-64
2022/10/27 11:57:27;;;;;;;8.30;3.40;;;27.40;96.00;;;;;;5072542;28;20483;-63
2022/10/27 12:00:05;;;;;;;8.30;3.03;;;27.30;96.00;;;;;;5073021;28;20938;-64
2022/10/27 12:03:01;;;;;;;8.17;4.13;;;27.60;96.70;;;;;;5073294;28;20468;-64
2022/10/27 12:05:32;;;;;;;6.00;3.00;;;28.00;96.60;;;;;;5059246;28;20460;-64
2022/10/27 12:08:11;;;;;;;4.67;3.27;;;26.70;95.80;;;;;;5073262;28;20511;-63
2022/10/27 12:10:48;;;;;;;7.40;3.13;;;26.70;96.10;;;;;;5072855;28;20978;-63
2022/10/27 12:13:24;;;;;;;7.33;3.43;;;26.50;96.80;;;;;;5072462;28;20578;-64
2022/10/27 12:15:56;;;;;;;10.63;3.47;;;26.10;97.20;;;;;;5072977;28;20818;-64
2022/10/27 12:18:29;;;;;;;4.47;3.40;;;25.80;98.00;;;;;;5072721;28;20527;-64
2022/10/27 12:21:00;;;;;;;10.10;3.30;;;25.30;99.10;;;;;;5073169;28;20515;-64
2022/10/27 12:23:34;;;;;;;5.37;3.10;;;25.10;98.20;;;;;;5072984;28;20464;-63
2022/10/27 12:26:07;;;;;;;7.80;3.50;;;24.80;98.80;;;;;;5072774;28;20516;-63
2022/10/27 12:28:37;;;;;;;5.20;3.50;;;24.50;98.50;;;;;;5072699;28;20401;-63
2022/10/27 12:31:08;;;;;;;8.07;3.00;;;24.30;98.90;;;;;;5073027;28;20449;-64
2022/10/27 12:33:40;;;;;;;8.07;3.10;;;24.10;98.90;;;;;;5072845;28;20899;-64
2022/10/27 12:36:14;;;;;;;9.10;3.23;;;24.00;99.10;;;;;;5072622;28;20498;-64
2022/10/27 12:38:48;;;;;;;7.43;3.40;;;23.90;99.40;;;;;;5072764;28;20425;-63
2022/10/27 12:41:23;;;;;;;6.07;3.30;;;23.90;99.40;;;;;;5072792;28;20781;-64
2022/10/27 12:44:00;;;;;;;6.20;3.57;;;23.90;99.70;;;;;;5072867;28;20471;-64
2022/10/27 12:46:40;;;;;;;7.03;3.53;;;23.90;98.90;;;;;;5072957;28;20425;-64
2022/10/27 12:49:17;;;;;;;4.17;3.13;;;23.90;99.70;;;;;;5072515;28;20436;-64
2022/10/27 12:51:51;;;;;;;7.03;3.57;;;23.90;99.60;;;;;;5072593;28;20452;-64
2022/10/27 12:54:41;;;;;;;10.07;4.23;;;23.90;99.80;;;;;;5072524;28;20435;-64
2022/10/27 12:57:22;;;;;;;5.13;3.10;;;24.00;99.70;;;;;;5072402;28;21061;-64
2022/10/27 12:59:57;;;;;;;5.70;3.63;;;24.10;99.80;;;;;;5076348;28;20800;-64
2022/10/27 13:02:27;;;;;;;6.23;2.80;;;24.20;99.80;;;;;;5076199;28;20447;-63
2022/10/27 13:05:29;;;;;;;7.40;3.27;;;24.50;99.60;;;;;;5076053;28;20436;-64